Please enter the email address for your account. A verification code will be sent to you. Once you have received the verification code, you will be able to choose a new password for your account.

METAR TAF

[Source: ADDS]
METAR
LFCR 300630Z AUTO 09002KT CAVOK M07/M08 Q1024 TEMPO 0500 FZFG VV/// =
AMD LFCR 300606Z 3006/0106 VRB03KT 8000 NSC PROB30 TEMPO 3006/3008 0500 FZFG VV/// BECMG 3008/3010 CAVOK BECMG 0101/0103 BKN005 TEMPO 0103/0106 3000 -RA OVC002 LFBA 300630Z AUTO 11006KT 0450 R29/0600U FZFG VV/// M01/M01 Q1027 NOSIG =
LFBA 300500Z 3006/3015 11005KT 0400 FZFG VV/// BECMG 3010/3012 9999 NSW BKN004 LFSL 300630Z AUTO 13003KT 100V160 0700 0600 R29/0700N FZFG VV/// M04/M05 Q1026 BECMG CAVOK =
LFSL 300500Z 3006/3015 VRB02KT 3000 BR NSC TEMPO 3006/3008 0500 FZFG VV/// PROB30 TEMPO 3006/3008 0300 BECMG 3008/3010 CAVOK LFLW 300100Z AUTO 10003KT CAVOK M09/M10 Q1022 =
LFLW 300500Z 3006/3015 VRB02KT CAVOK TEMPO 3006/3008 3000 BR
TAF
AMD LFCR 300606Z 3006/0106 VRB03KT 8000 NSC PROB30 TEMPO 3006/3008 0500 FZFG VV/// BECMG 3008/3010 CAVOK BECMG 0101/0103 BKN005 TEMPO 0103/0106 3000 -RA OVC002 =
LFBA 300500Z 3006/3015 11005KT 0400 FZFG VV/// BECMG 3010/3012 9999 NSW BKN004 =
LFSL 300500Z 3006/3015 VRB02KT 3000 BR NSC TEMPO 3006/3008 0500 FZFG VV/// PROB30 TEMPO 3006/3008 0300 BECMG 3008/3010 CAVOK =
LFLW 300500Z 3006/3015 VRB02KT CAVOK TEMPO 3006/3008 3000 BR =
SR / SS: 07:09 / 16:16 UTC (LFCC 2021-11-30)